Mariano I. Loza, Argentina
Current Conditions -  °F | °C
As of 3:00 PM on Sunday 23 Nov 2014 (Local Time) from SARL Reporting Station
Clear Clear  
Wind Chill: 82°   Ceiling: Unl
Heat Index: 82°   Visibility: 6mi
Dew Point: 57°   Wind: 20mph
Humidity: 42%   Direction: 50°NE
Pressure: 29.88"   Gusts: NA
Location:  29.37°S, 58.2°W
Report Text: SARL 231800Z 05017KT CAVOK 28/14 Q1012
Loading
Personal Weather Stations






























Interactive Weather Map New forecast layout! Learn more

10-Day Weather Forecast

Advertisements
Track Severe Weather on mobile